Terminal Aerodrome Forecast
Issued by NWS Cleveland, OH

Home | Current Version | Previous Version | Text Only | Print | Product List | Glossary On
Versions: 1 2 3 4 5 6 7 8 9 10 11 12 13 14 15 16 17 18 19 20 21
927
FTUS41 KCLE 180540
TAFCAK
TAF
KCAK 180540Z 1806/1906 26010KT P6SM OVC012
     FM180800 27010KT P6SM -SHRA OVC009
     FM181300 27009KT 4SM -DZ BR OVC009
     FM181600 27009KT 4SM BR OVC003
     FM181800 26009KT P6SM OVC009
     FM190300 24005KT P6SM OVC005=

USA.gov is the U.S. government's official web portal to all federal, state and local government web resources and services.